sensor_id;sensor_type;location;lat;lon;timestamp;P1;durP1;ratioP1;P2;durP2;ratioP2
37341;SDS011;58643;49.052;8.518;2023-02-23T00:00:26;56.90;;;30.45;;
37341;SDS011;58643;49.052;8.518;2023-02-23T00:02:56;59.95;;;30.98;;
37341;SDS011;58643;49.052;8.518;2023-02-23T00:05:23;61.78;;;31.08;;
37341;SDS011;58643;49.052;8.518;2023-02-23T00:07:50;63.03;;;30.98;;
37341;SDS011;58643;49.052;8.518;2023-02-23T00:10:16;60.97;;;31.92;;
37341;SDS011;58643;49.052;8.518;2023-02-23T00:12:43;65.43;;;30.98;;
37341;SDS011;58643;49.052;8.518;2023-02-23T00:15:09;66.65;;;32.25;;
37341;SDS011;58643;49.052;8.518;2023-02-23T00:17:35;60.88;;;30.13;;
37341;SDS011;58643;49.052;8.518;2023-02-23T00:20:04;61.90;;;31.27;;
37341;SDS011;58643;49.052;8.518;2023-02-23T00:22:32;66.93;;;31.25;;
37341;SDS011;58643;49.052;8.518;2023-02-23T00:24:58;65.72;;;32.05;;
37341;SDS011;58643;49.052;8.518;2023-02-23T00:27:24;67.30;;;31.58;;
37341;SDS011;58643;49.052;8.518;2023-02-23T00:29:50;62.22;;;32.40;;
37341;SDS011;58643;49.052;8.518;2023-02-23T00:32:16;69.82;;;33.05;;
37341;SDS011;58643;49.052;8.518;2023-02-23T00:34:44;60.08;;;32.05;;
37341;SDS011;58643;49.052;8.518;2023-02-23T00:37:12;72.47;;;33.45;;
37341;SDS011;58643;49.052;8.518;2023-02-23T00:39:38;61.97;;;32.05;;
37341;SDS011;58643;49.052;8.518;2023-02-23T00:42:04;66.78;;;33.40;;
37341;SDS011;58643;49.052;8.518;2023-02-23T00:44:30;63.78;;;31.55;;
37341;SDS011;58643;49.052;8.518;2023-02-23T00:46:57;62.70;;;32.17;;
37341;SDS011;58643;49.052;8.518;2023-02-23T00:49:24;67.45;;;32.85;;
37341;SDS011;58643;49.052;8.518;2023-02-23T00:51:50;70.75;;;35.03;;
37341;SDS011;58643;49.052;8.518;2023-02-23T00:54:19;66.75;;;33.47;;
37341;SDS011;58643;49.052;8.518;2023-02-23T00:56:46;66.95;;;34.17;;
37341;SDS011;58643;49.052;8.518;2023-02-23T00:59:12;67.82;;;34.00;;
37341;SDS011;58643;49.052;8.518;2023-02-23T01:01:39;70.82;;;35.90;;
37341;SDS011;58643;49.052;8.518;2023-02-23T01:06:37;66.55;;;33.88;;
37341;SDS011;58643;49.052;8.518;2023-02-23T01:09:06;67.10;;;34.60;;
37341;SDS011;58643;49.052;8.518;2023-02-23T01:11:40;71.30;;;35.17;;
37341;SDS011;58643;49.052;8.518;2023-02-23T01:14:06;71.55;;;34.70;;
37341;SDS011;58643;49.052;8.518;2023-02-23T01:16:33;65.50;;;35.33;;
37341;SDS011;58643;49.052;8.518;2023-02-23T01:19:01;72.95;;;35.42;;
37341;SDS011;58643;49.052;8.518;2023-02-23T01:21:29;71.53;;;35.20;;
37341;SDS011;58643;49.052;8.518;2023-02-23T01:23:59;70.75;;;34.78;;
37341;SDS011;58643;49.052;8.518;2023-02-23T01:26:33;68.55;;;34.78;;
37341;SDS011;58643;49.052;8.518;2023-02-23T01:29:02;72.18;;;36.25;;
37341;SDS011;58643;49.052;8.518;2023-02-23T01:31:32;67.72;;;36.60;;
37341;SDS011;58643;49.052;8.518;2023-02-23T01:34:00;74.20;;;36.38;;
37341;SDS011;58643;49.052;8.518;2023-02-23T01:36:27;68.50;;;34.85;;
37341;SDS011;58643;49.052;8.518;2023-02-23T01:41:24;74.88;;;36.53;;
37341;SDS011;58643;49.052;8.518;2023-02-23T01:46:29;61.83;;;34.17;;
37341;SDS011;58643;49.052;8.518;2023-02-23T01:48:56;68.30;;;33.78;;
37341;SDS011;58643;49.052;8.518;2023-02-23T01:51:23;74.82;;;35.70;;
37341;SDS011;58643;49.052;8.518;2023-02-23T01:54:06;75.03;;;36.30;;
37341;SDS011;58643;49.052;8.518;2023-02-23T01:56:39;69.93;;;34.45;;
37341;SDS011;58643;49.052;8.518;2023-02-23T02:01:36;66.45;;;33.60;;
37341;SDS011;58643;49.052;8.518;2023-02-23T02:04:06;63.28;;;35.28;;
37341;SDS011;58643;49.052;8.518;2023-02-23T02:06:33;65.13;;;34.90;;
37341;SDS011;58643;49.052;8.518;2023-02-23T02:09:01;72.82;;;35.15;;
37341;SDS011;58643;49.052;8.518;2023-02-23T02:11:32;71.90;;;35.70;;
37341;SDS011;58643;49.052;8.518;2023-02-23T02:14:06;69.63;;;34.40;;
37341;SDS011;58643;49.052;8.518;2023-02-23T02:33:55;68.00;;;34.28;;
37341;SDS011;58643;49.052;8.518;2023-02-23T02:42:21;69.05;;;33.03;;
37341;SDS011;58643;49.052;8.518;2023-02-23T02:47:45;69.50;;;34.55;;
37341;SDS011;58643;49.052;8.518;2023-02-23T02:52:44;180.95;;;82.18;;
37341;SDS011;58643;49.052;8.518;2023-02-23T02:55:17;156.63;;;68.53;;
37341;SDS011;58643;49.052;8.518;2023-02-23T02:57:50;193.40;;;78.32;;
37341;SDS011;58643;49.052;8.518;2023-02-23T03:00:22;118.38;;;52.75;;
37341;SDS011;58643;49.052;8.518;2023-02-23T03:06:21;207.63;;;91.10;;
37341;SDS011;58643;49.052;8.518;2023-02-23T03:09:18;115.50;;;50.17;;
37341;SDS011;58643;49.052;8.518;2023-02-23T03:18:21;74.82;;;36.05;;
37341;SDS011;58643;49.052;8.518;2023-02-23T03:21:35;69.32;;;34.03;;
37341;SDS011;58643;49.052;8.518;2023-02-23T03:25:06;70.90;;;33.17;;
37341;SDS011;58643;49.052;8.518;2023-02-23T03:30:53;67.72;;;34.60;;
37341;SDS011;58643;49.052;8.518;2023-02-23T03:37:03;64.13;;;34.47;;
37341;SDS011;58643;49.052;8.518;2023-02-23T03:40:05;66.88;;;33.72;;
37341;SDS011;58643;49.052;8.518;2023-02-23T03:43:01;65.30;;;33.15;;
37341;SDS011;58643;49.052;8.518;2023-02-23T03:45:49;73.75;;;36.17;;
37341;SDS011;58643;49.052;8.518;2023-02-23T03:48:35;72.45;;;34.03;;
37341;SDS011;58643;49.052;8.518;2023-02-23T03:51:21;72.72;;;34.85;;
37341;SDS011;58643;49.052;8.518;2023-02-23T03:54:15;67.97;;;35.03;;
37341;SDS011;58643;49.052;8.518;2023-02-23T03:57:14;72.53;;;35.63;;
37341;SDS011;58643;49.052;8.518;2023-02-23T04:00:02;66.32;;;34.33;;
37341;SDS011;58643;49.052;8.518;2023-02-23T04:02:50;72.18;;;35.00;;
37341;SDS011;58643;49.052;8.518;2023-02-23T04:05:37;74.15;;;35.42;;
37341;SDS011;58643;49.052;8.518;2023-02-23T04:08:26;71.97;;;35.95;;
37341;SDS011;58643;49.052;8.518;2023-02-23T04:17:36;66.70;;;33.25;;
37341;SDS011;58643;49.052;8.518;2023-02-23T04:20:03;65.70;;;33.92;;
37341;SDS011;58643;49.052;8.518;2023-02-23T04:22:30;72.15;;;32.38;;
37341;SDS011;58643;49.052;8.518;2023-02-23T04:24:56;69.60;;;34.60;;
37341;SDS011;58643;49.052;8.518;2023-02-23T04:27:22;63.97;;;32.35;;
37341;SDS011;58643;49.052;8.518;2023-02-23T04:29:47;62.55;;;33.22;;
37341;SDS011;58643;49.052;8.518;2023-02-23T04:32:14;66.65;;;32.95;;
37341;SDS011;58643;49.052;8.518;2023-02-23T04:34:42;67.40;;;32.08;;
37341;SDS011;58643;49.052;8.518;2023-02-23T04:37:09;65.95;;;30.67;;
37341;SDS011;58643;49.052;8.518;2023-02-23T04:39:34;63.88;;;31.73;;
37341;SDS011;58643;49.052;8.518;2023-02-23T04:42:00;63.70;;;31.40;;
37341;SDS011;58643;49.052;8.518;2023-02-23T04:44:25;59.85;;;29.90;;
37341;SDS011;58643;49.052;8.518;2023-02-23T04:46:51;61.05;;;31.02;;
37341;SDS011;58643;49.052;8.518;2023-02-23T04:49:17;58.40;;;31.75;;
37341;SDS011;58643;49.052;8.518;2023-02-23T04:51:42;63.28;;;31.95;;
37341;SDS011;58643;49.052;8.518;2023-02-23T04:54:08;54.83;;;28.75;;
37341;SDS011;58643;49.052;8.518;2023-02-23T04:56:34;66.07;;;30.95;;
37341;SDS011;58643;49.052;8.518;2023-02-23T04:58:59;64.80;;;31.58;;
37341;SDS011;58643;49.052;8.518;2023-02-23T05:01:25;57.35;;;31.83;;
37341;SDS011;58643;49.052;8.518;2023-02-23T05:03:52;61.22;;;30.50;;
37341;SDS011;58643;49.052;8.518;2023-02-23T05:06:19;58.88;;;29.90;;
37341;SDS011;58643;49.052;8.518;2023-02-23T05:08:45;66.38;;;32.40;;
37341;SDS011;58643;49.052;8.518;2023-02-23T05:11:11;60.97;;;31.75;;
37341;SDS011;58643;49.052;8.518;2023-02-23T05:13:37;60.33;;;30.67;;
37341;SDS011;58643;49.052;8.518;2023-02-23T05:16:03;69.80;;;32.33;;
37341;SDS011;58643;49.052;8.518;2023-02-23T05:18:29;66.57;;;31.75;;
37341;SDS011;58643;49.052;8.518;2023-02-23T05:21:00;63.40;;;30.02;;
37341;SDS011;58643;49.052;8.518;2023-02-23T05:23:27;59.53;;;31.10;;
37341;SDS011;58643;49.052;8.518;2023-02-23T05:25:52;56.10;;;30.10;;
37341;SDS011;58643;49.052;8.518;2023-02-23T05:28:18;60.15;;;30.05;;
37341;SDS011;58643;49.052;8.518;2023-02-23T05:30:43;56.20;;;29.73;;
37341;SDS011;58643;49.052;8.518;2023-02-23T05:33:09;61.65;;;29.67;;
37341;SDS011;58643;49.052;8.518;2023-02-23T05:35:38;61.88;;;31.17;;
37341;SDS011;58643;49.052;8.518;2023-02-23T05:38:05;54.92;;;29.80;;
37341;SDS011;58643;49.052;8.518;2023-02-23T05:40:30;54.13;;;29.13;;
37341;SDS011;58643;49.052;8.518;2023-02-23T05:42:59;53.70;;;28.42;;
37341;SDS011;58643;49.052;8.518;2023-02-23T05:45:25;60.53;;;28.45;;
37341;SDS011;58643;49.052;8.518;2023-02-23T05:47:50;54.88;;;28.45;;
37341;SDS011;58643;49.052;8.518;2023-02-23T05:50:16;56.13;;;27.98;;
37341;SDS011;58643;49.052;8.518;2023-02-23T05:52:42;54.28;;;27.90;;
37341;SDS011;58643;49.052;8.518;2023-02-23T05:55:09;57.33;;;27.23;;
37341;SDS011;58643;49.052;8.518;2023-02-23T05:57:39;53.53;;;28.13;;
37341;SDS011;58643;49.052;8.518;2023-02-23T06:00:08;55.53;;;28.55;;
37341;SDS011;58643;49.052;8.518;2023-02-23T06:02:34;49.05;;;26.38;;
37341;SDS011;58643;49.052;8.518;2023-02-23T06:05:00;55.13;;;27.42;;
37341;SDS011;58643;49.052;8.518;2023-02-23T06:07:26;51.15;;;26.77;;
37341;SDS011;58643;49.052;8.518;2023-02-23T06:09:51;54.10;;;26.50;;
37341;SDS011;58643;49.052;8.518;2023-02-23T06:12:17;47.75;;;26.17;;
37341;SDS011;58643;49.052;8.518;2023-02-23T06:14:43;53.38;;;26.40;;
37341;SDS011;58643;49.052;8.518;2023-02-23T06:17:08;51.85;;;24.77;;
37341;SDS011;58643;49.052;8.518;2023-02-23T06:19:34;46.83;;;25.38;;
37341;SDS011;58643;49.052;8.518;2023-02-23T06:22:00;48.97;;;26.35;;
37341;SDS011;58643;49.052;8.518;2023-02-23T06:24:25;60.28;;;28.63;;
37341;SDS011;58643;49.052;8.518;2023-02-23T06:26:51;51.25;;;26.15;;
37341;SDS011;58643;49.052;8.518;2023-02-23T06:29:16;44.78;;;26.38;;
37341;SDS011;58643;49.052;8.518;2023-02-23T06:31:42;42.33;;;24.58;;
37341;SDS011;58643;49.052;8.518;2023-02-23T06:34:08;47.95;;;26.85;;
37341;SDS011;58643;49.052;8.518;2023-02-23T06:36:35;44.05;;;24.80;;
37341;SDS011;58643;49.052;8.518;2023-02-23T06:39:02;48.25;;;25.85;;
37341;SDS011;58643;49.052;8.518;2023-02-23T06:41:28;46.85;;;26.65;;
37341;SDS011;58643;49.052;8.518;2023-02-23T06:43:55;50.22;;;26.05;;
37341;SDS011;58643;49.052;8.518;2023-02-23T06:46:21;46.80;;;25.27;;
37341;SDS011;58643;49.052;8.518;2023-02-23T06:48:47;46.25;;;25.17;;
37341;SDS011;58643;49.052;8.518;2023-02-23T06:51:12;46.85;;;25.83;;
37341;SDS011;58643;49.052;8.518;2023-02-23T06:53:38;52.78;;;25.10;;
37341;SDS011;58643;49.052;8.518;2023-02-23T06:56:04;54.00;;;25.55;;
37341;SDS011;58643;49.052;8.518;2023-02-23T06:58:30;46.80;;;23.85;;
37341;SDS011;58643;49.052;8.518;2023-02-23T07:00:56;50.58;;;25.67;;
37341;SDS011;58643;49.052;8.518;2023-02-23T07:03:23;41.53;;;23.48;;
37341;SDS011;58643;49.052;8.518;2023-02-23T07:05:50;41.45;;;24.50;;
37341;SDS011;58643;49.052;8.518;2023-02-23T07:08:16;42.70;;;23.63;;
37341;SDS011;58643;49.052;8.518;2023-02-23T07:10:43;43.08;;;22.85;;
37341;SDS011;58643;49.052;8.518;2023-02-23T07:13:09;43.00;;;22.52;;
37341;SDS011;58643;49.052;8.518;2023-02-23T07:15:37;44.97;;;24.02;;
37341;SDS011;58643;49.052;8.518;2023-02-23T07:18:04;43.55;;;23.10;;
37341;SDS011;58643;49.052;8.518;2023-02-23T07:20:30;42.85;;;21.92;;
37341;SDS011;58643;49.052;8.518;2023-02-23T07:22:57;44.60;;;23.02;;
37341;SDS011;58643;49.052;8.518;2023-02-23T07:25:24;40.78;;;22.38;;
37341;SDS011;58643;49.052;8.518;2023-02-23T07:27:53;43.83;;;23.23;;
37341;SDS011;58643;49.052;8.518;2023-02-23T07:30:20;41.50;;;22.35;;
37341;SDS011;58643;49.052;8.518;2023-02-23T07:35:17;38.28;;;20.40;;
37341;SDS011;58643;49.052;8.518;2023-02-23T07:37:43;40.03;;;21.35;;
37341;SDS011;58643;49.052;8.518;2023-02-23T07:40:09;44.70;;;21.70;;
37341;SDS011;58643;49.052;8.518;2023-02-23T07:42:35;36.63;;;21.67;;
37341;SDS011;58643;49.052;8.518;2023-02-23T07:45:01;37.67;;;21.65;;
37341;SDS011;58643;49.052;8.518;2023-02-23T07:47:26;37.90;;;21.65;;
37341;SDS011;58643;49.052;8.518;2023-02-23T07:49:56;37.87;;;21.83;;
37341;SDS011;58643;49.052;8.518;2023-02-23T07:52:22;38.47;;;22.33;;
37341;SDS011;58643;49.052;8.518;2023-02-23T07:54:48;46.55;;;22.60;;
37341;SDS011;58643;49.052;8.518;2023-02-23T07:57:13;40.40;;;22.48;;
37341;SDS011;58643;49.052;8.518;2023-02-23T07:59:39;38.38;;;22.13;;
37341;SDS011;58643;49.052;8.518;2023-02-23T08:02:05;42.20;;;21.52;;
37341;SDS011;58643;49.052;8.518;2023-02-23T08:04:31;42.30;;;23.13;;
37341;SDS011;58643;49.052;8.518;2023-02-23T08:06:57;39.75;;;21.80;;
37341;SDS011;58643;49.052;8.518;2023-02-23T08:09:22;36.17;;;20.58;;
37341;SDS011;58643;49.052;8.518;2023-02-23T08:11:48;34.75;;;20.08;;
37341;SDS011;58643;49.052;8.518;2023-02-23T08:14:13;37.65;;;20.27;;
37341;SDS011;58643;49.052;8.518;2023-02-23T08:16:39;33.97;;;19.10;;
37341;SDS011;58643;49.052;8.518;2023-02-23T08:19:05;39.53;;;18.55;;
37341;SDS011;58643;49.052;8.518;2023-02-23T08:21:30;33.90;;;19.42;;
37341;SDS011;58643;49.052;8.518;2023-02-23T08:23:56;32.05;;;18.00;;
37341;SDS011;58643;49.052;8.518;2023-02-23T08:26:23;32.08;;;16.67;;
37341;SDS011;58643;49.052;8.518;2023-02-23T08:28:49;34.40;;;19.92;;
37341;SDS011;58643;49.052;8.518;2023-02-23T08:31:15;32.45;;;17.98;;
37341;SDS011;58643;49.052;8.518;2023-02-23T08:33:43;35.72;;;19.38;;
37341;SDS011;58643;49.052;8.518;2023-02-23T08:36:08;30.85;;;18.85;;
37341;SDS011;58643;49.052;8.518;2023-02-23T08:38:34;32.25;;;19.77;;
37341;SDS011;58643;49.052;8.518;2023-02-23T08:41:03;35.83;;;18.42;;
37341;SDS011;58643;49.052;8.518;2023-02-23T08:43:30;40.05;;;19.13;;
37341;SDS011;58643;49.052;8.518;2023-02-23T08:45:56;28.33;;;17.77;;
37341;SDS011;58643;49.052;8.518;2023-02-23T08:48:21;30.08;;;16.55;;
37341;SDS011;58643;49.052;8.518;2023-02-23T08:50:48;30.42;;;17.05;;
37341;SDS011;58643;49.052;8.518;2023-02-23T08:53:14;31.33;;;16.42;;
37341;SDS011;58643;49.052;8.518;2023-02-23T08:55:40;26.55;;;16.88;;
37341;SDS011;58643;49.052;8.518;2023-02-23T08:58:07;28.40;;;15.10;;
37341;SDS011;58643;49.052;8.518;2023-02-23T09:00:35;28.23;;;14.27;;
37341;SDS011;58643;49.052;8.518;2023-02-23T09:03:02;27.77;;;15.35;;
37341;SDS011;58643;49.052;8.518;2023-02-23T09:05:29;27.73;;;15.73;;
37341;SDS011;58643;49.052;8.518;2023-02-23T09:07:55;22.13;;;13.85;;
37341;SDS011;58643;49.052;8.518;2023-02-23T09:10:21;22.02;;;12.85;;
37341;SDS011;58643;49.052;8.518;2023-02-23T09:12:52;20.85;;;12.23;;
37341;SDS011;58643;49.052;8.518;2023-02-23T09:15:19;24.60;;;13.50;;
37341;SDS011;58643;49.052;8.518;2023-02-23T09:17:45;22.92;;;12.85;;
37341;SDS011;58643;49.052;8.518;2023-02-23T09:20:12;20.55;;;11.57;;
37341;SDS011;58643;49.052;8.518;2023-02-23T09:22:42;23.23;;;12.63;;
37341;SDS011;58643;49.052;8.518;2023-02-23T09:25:12;21.75;;;12.52;;
37341;SDS011;58643;49.052;8.518;2023-02-23T09:27:42;18.55;;;11.70;;
37341;SDS011;58643;49.052;8.518;2023-02-23T09:30:08;24.27;;;11.00;;
37341;SDS011;58643;49.052;8.518;2023-02-23T09:32:34;17.98;;;10.90;;
37341;SDS011;58643;49.052;8.518;2023-02-23T09:35:00;19.58;;;10.93;;
37341;SDS011;58643;49.052;8.518;2023-02-23T09:37:26;18.23;;;10.48;;
37341;SDS011;58643;49.052;8.518;2023-02-23T09:39:51;17.08;;;10.45;;
37341;SDS011;58643;49.052;8.518;2023-02-23T09:42:36;21.52;;;10.25;;
37341;SDS011;58643;49.052;8.518;2023-02-23T09:48:08;16.60;;;8.52;;
37341;SDS011;58643;49.052;8.518;2023-02-23T09:50:41;16.13;;;9.07;;
37341;SDS011;58643;49.052;8.518;2023-02-23T09:53:14;14.73;;;8.77;;
37341;SDS011;58643;49.052;8.518;2023-02-23T09:56:15;17.23;;;10.10;;
37341;SDS011;58643;49.052;8.518;2023-02-23T09:59:03;14.05;;;8.98;;
37341;SDS011;58643;49.052;8.518;2023-02-23T10:06:36;19.42;;;10.88;;
37341;SDS011;58643;49.052;8.518;2023-02-23T10:09:50;20.60;;;10.93;;
37341;SDS011;58643;49.052;8.518;2023-02-23T10:14:53;20.75;;;12.82;;
37341;SDS011;58643;49.052;8.518;2023-02-23T10:17:43;20.73;;;9.95;;
37341;SDS011;58643;49.052;8.518;2023-02-23T10:23:18;21.95;;;10.98;;
37341;SDS011;58643;49.052;8.518;2023-02-23T10:25:50;19.45;;;11.35;;
37341;SDS011;58643;49.052;8.518;2023-02-23T10:28:19;22.15;;;10.18;;
37341;SDS011;58643;49.052;8.518;2023-02-23T10:30:47;16.17;;;10.02;;
37341;SDS011;58643;49.052;8.518;2023-02-23T10:33:25;18.85;;;10.70;;
37341;SDS011;58643;49.052;8.518;2023-02-23T10:36:09;20.92;;;10.15;;
37341;SDS011;58643;49.052;8.518;2023-02-23T10:38:39;18.38;;;10.20;;
37341;SDS011;58643;49.052;8.518;2023-02-23T10:41:05;18.65;;;10.70;;
37341;SDS011;58643;49.052;8.518;2023-02-23T10:43:31;18.00;;;9.23;;
37341;SDS011;58643;49.052;8.518;2023-02-23T10:45:57;15.10;;;8.95;;
37341;SDS011;58643;49.052;8.518;2023-02-23T10:48:28;17.33;;;8.30;;
37341;SDS011;58643;49.052;8.518;2023-02-23T10:50:59;20.27;;;9.77;;
37341;SDS011;58643;49.052;8.518;2023-02-23T10:53:32;16.67;;;9.70;;
37341;SDS011;58643;49.052;8.518;2023-02-23T10:58:41;20.90;;;9.68;;
37341;SDS011;58643;49.052;8.518;2023-02-23T11:01:13;14.95;;;7.93;;
37341;SDS011;58643;49.052;8.518;2023-02-23T11:03:49;15.82;;;10.18;;
37341;SDS011;58643;49.052;8.518;2023-02-23T11:06:31;20.15;;;9.95;;
37341;SDS011;58643;49.052;8.518;2023-02-23T11:09:15;16.38;;;10.15;;
37341;SDS011;58643;49.052;8.518;2023-02-23T11:11:59;21.73;;;11.05;;
37341;SDS011;58643;49.052;8.518;2023-02-23T11:14:27;21.05;;;10.35;;
37341;SDS011;58643;49.052;8.518;2023-02-23T11:16:55;20.25;;;10.70;;
37341;SDS011;58643;49.052;8.518;2023-02-23T11:19:55;19.08;;;9.88;;
37341;SDS011;58643;49.052;8.518;2023-02-23T11:22:18;22.05;;;10.68;;
37341;SDS011;58643;49.052;8.518;2023-02-23T11:24:47;21.55;;;12.02;;
37341;SDS011;58643;49.052;8.518;2023-02-23T11:27:18;22.10;;;11.07;;
37341;SDS011;58643;49.052;8.518;2023-02-23T11:29:50;23.83;;;12.35;;
37341;SDS011;58643;49.052;8.518;2023-02-23T11:32:30;26.83;;;12.50;;
37341;SDS011;58643;49.052;8.518;2023-02-23T11:35:13;21.95;;;11.45;;
37341;SDS011;58643;49.052;8.518;2023-02-23T11:37:45;21.23;;;11.30;;
37341;SDS011;58643;49.052;8.518;2023-02-23T11:40:24;21.67;;;10.65;;
37341;SDS011;58643;49.052;8.518;2023-02-23T11:42:56;22.92;;;12.23;;
37341;SDS011;58643;49.052;8.518;2023-02-23T11:45:31;21.50;;;10.45;;
37341;SDS011;58643;49.052;8.518;2023-02-23T11:48:25;17.27;;;10.55;;
37341;SDS011;58643;49.052;8.518;2023-02-23T11:50:54;24.00;;;9.93;;
37341;SDS011;58643;49.052;8.518;2023-02-23T11:55:57;20.90;;;9.73;;
37341;SDS011;58643;49.052;8.518;2023-02-23T12:01:11;25.38;;;10.40;;
37341;SDS011;58643;49.052;8.518;2023-02-23T12:03:59;21.15;;;10.25;;
37341;SDS011;58643;49.052;8.518;2023-02-23T12:06:25;23.40;;;10.32;;
37341;SDS011;58643;49.052;8.518;2023-02-23T12:09:04;16.10;;;9.57;;
37341;SDS011;58643;49.052;8.518;2023-02-23T12:11:32;19.33;;;10.18;;
37341;SDS011;58643;49.052;8.518;2023-02-23T12:14:06;17.55;;;8.73;;
37341;SDS011;58643;49.052;8.518;2023-02-23T12:16:46;17.73;;;10.35;;
37341;SDS011;58643;49.052;8.518;2023-02-23T12:19:27;21.52;;;9.90;;
37341;SDS011;58643;49.052;8.518;2023-02-23T12:22:02;19.67;;;9.68;;
37341;SDS011;58643;49.052;8.518;2023-02-23T12:38:07;18.17;;;9.18;;
37341;SDS011;58643;49.052;8.518;2023-02-23T12:40:36;20.50;;;9.27;;
37341;SDS011;58643;49.052;8.518;2023-02-23T12:43:14;20.15;;;9.70;;
37341;SDS011;58643;49.052;8.518;2023-02-23T12:46:07;20.75;;;9.63;;
37341;SDS011;58643;49.052;8.518;2023-02-23T12:51:39;19.00;;;8.48;;
37341;SDS011;58643;49.052;8.518;2023-02-23T12:54:12;15.52;;;8.45;;
37341;SDS011;58643;49.052;8.518;2023-02-23T13:08:00;16.25;;;8.38;;
37341;SDS011;58643;49.052;8.518;2023-02-23T13:10:37;14.65;;;7.82;;
37341;SDS011;58643;49.052;8.518;2023-02-23T13:13:38;14.77;;;7.80;;
37341;SDS011;58643;49.052;8.518;2023-02-23T13:16:21;16.33;;;7.72;;
37341;SDS011;58643;49.052;8.518;2023-02-23T13:21:41;15.77;;;7.70;;
37341;SDS011;58643;49.052;8.518;2023-02-23T13:24:17;17.17;;;7.95;;
37341;SDS011;58643;49.052;8.518;2023-02-23T13:31:58;18.30;;;6.63;;
37341;SDS011;58643;49.052;8.518;2023-02-23T13:34:29;10.98;;;5.85;;
37341;SDS011;58643;49.052;8.518;2023-02-23T13:37:04;19.55;;;7.53;;
37341;SDS011;58643;49.052;8.518;2023-02-23T13:39:37;14.23;;;7.53;;
37341;SDS011;58643;49.052;8.518;2023-02-23T13:47:46;14.23;;;7.25;;
37341;SDS011;58643;49.052;8.518;2023-02-23T13:50:28;17.85;;;7.53;;
37341;SDS011;58643;49.052;8.518;2023-02-23T13:53:05;15.82;;;7.78;;
37341;SDS011;58643;49.052;8.518;2023-02-23T13:55:34;16.38;;;7.03;;
37341;SDS011;58643;49.052;8.518;2023-02-23T13:58:15;14.35;;;7.25;;
37341;SDS011;58643;49.052;8.518;2023-02-23T14:00:43;12.98;;;6.68;;
37341;SDS011;58643;49.052;8.518;2023-02-23T14:03:19;13.57;;;7.32;;
37341;SDS011;58643;49.052;8.518;2023-02-23T14:05:51;12.90;;;6.63;;
37341;SDS011;58643;49.052;8.518;2023-02-23T14:08:56;11.35;;;6.18;;
37341;SDS011;58643;49.052;8.518;2023-02-23T14:11:26;14.77;;;7.15;;
37341;SDS011;58643;49.052;8.518;2023-02-23T14:13:58;15.50;;;7.85;;
37341;SDS011;58643;49.052;8.518;2023-02-23T14:16:26;13.38;;;5.72;;
37341;SDS011;58643;49.052;8.518;2023-02-23T14:18:53;12.95;;;4.95;;
37341;SDS011;58643;49.052;8.518;2023-02-23T14:21:32;17.25;;;6.35;;
37341;SDS011;58643;49.052;8.518;2023-02-23T14:29:30;16.15;;;8.40;;
37341;SDS011;58643;49.052;8.518;2023-02-23T14:34:58;18.55;;;8.48;;
37341;SDS011;58643;49.052;8.518;2023-02-23T14:37:35;16.90;;;7.63;;
37341;SDS011;58643;49.052;8.518;2023-02-23T14:40:17;15.70;;;8.20;;
37341;SDS011;58643;49.052;8.518;2023-02-23T14:42:48;18.83;;;9.32;;
37341;SDS011;58643;49.052;8.518;2023-02-23T14:47:54;13.90;;;7.85;;
37341;SDS011;58643;49.052;8.518;2023-02-23T14:50:31;17.77;;;8.75;;
37341;SDS011;58643;49.052;8.518;2023-02-23T14:52:58;18.05;;;9.25;;
37341;SDS011;58643;49.052;8.518;2023-02-23T14:55:27;18.10;;;8.40;;
37341;SDS011;58643;49.052;8.518;2023-02-23T14:57:54;14.68;;;8.50;;
37341;SDS011;58643;49.052;8.518;2023-02-23T15:00:21;18.02;;;8.05;;
37341;SDS011;58643;49.052;8.518;2023-02-23T15:05:24;22.80;;;8.13;;
37341;SDS011;58643;49.052;8.518;2023-02-23T15:07:52;14.98;;;7.70;;
37341;SDS011;58643;49.052;8.518;2023-02-23T15:10:23;24.63;;;8.60;;
37341;SDS011;58643;49.052;8.518;2023-02-23T15:12:57;18.55;;;8.00;;
37341;SDS011;58643;49.052;8.518;2023-02-23T15:15:24;18.85;;;7.70;;
37341;SDS011;58643;49.052;8.518;2023-02-23T15:17:54;15.35;;;8.32;;
37341;SDS011;58643;49.052;8.518;2023-02-23T15:20:26;19.40;;;8.00;;
37341;SDS011;58643;49.052;8.518;2023-02-23T15:22:56;16.38;;;8.30;;
37341;SDS011;58643;49.052;8.518;2023-02-23T15:25:24;20.95;;;8.80;;
37341;SDS011;58643;49.052;8.518;2023-02-23T15:27:57;14.75;;;8.43;;
37341;SDS011;58643;49.052;8.518;2023-02-23T15:30:30;18.73;;;8.43;;
37341;SDS011;58643;49.052;8.518;2023-02-23T15:35:25;12.93;;;7.10;;
37341;SDS011;58643;49.052;8.518;2023-02-23T15:37:51;19.13;;;8.25;;
37341;SDS011;58643;49.052;8.518;2023-02-23T15:40:19;15.02;;;8.57;;
37341;SDS011;58643;49.052;8.518;2023-02-23T15:42:52;19.60;;;9.75;;
37341;SDS011;58643;49.052;8.518;2023-02-23T15:45:25;24.95;;;9.15;;
37341;SDS011;58643;49.052;8.518;2023-02-23T15:47:58;18.13;;;9.45;;
37341;SDS011;58643;49.052;8.518;2023-02-23T15:50:28;27.25;;;12.38;;
37341;SDS011;58643;49.052;8.518;2023-02-23T15:53:06;19.58;;;9.70;;
37341;SDS011;58643;49.052;8.518;2023-02-23T15:55:39;15.38;;;7.57;;
37341;SDS011;58643;49.052;8.518;2023-02-23T15:58:26;14.77;;;6.32;;
37341;SDS011;58643;49.052;8.518;2023-02-23T16:01:06;12.00;;;6.07;;
37341;SDS011;58643;49.052;8.518;2023-02-23T16:03:35;14.98;;;6.05;;
37341;SDS011;58643;49.052;8.518;2023-02-23T16:06:06;13.57;;;6.15;;
37341;SDS011;58643;49.052;8.518;2023-02-23T16:11:30;12.65;;;5.75;;
37341;SDS011;58643;49.052;8.518;2023-02-23T16:14:00;10.85;;;5.30;;
37341;SDS011;58643;49.052;8.518;2023-02-23T16:16:26;12.77;;;5.50;;
37341;SDS011;58643;49.052;8.518;2023-02-23T16:18:58;15.13;;;5.78;;
37341;SDS011;58643;49.052;8.518;2023-02-23T16:21:26;12.90;;;4.85;;
37341;SDS011;58643;49.052;8.518;2023-02-23T16:23:54;11.13;;;4.32;;
37341;SDS011;58643;49.052;8.518;2023-02-23T16:26:27;9.68;;;3.92;;
37341;SDS011;58643;49.052;8.518;2023-02-23T16:29:16;9.48;;;4.55;;
37341;SDS011;58643;49.052;8.518;2023-02-23T16:31:52;10.38;;;4.55;;
37341;SDS011;58643;49.052;8.518;2023-02-23T16:34:26;10.90;;;4.78;;
37341;SDS011;58643;49.052;8.518;2023-02-23T16:36:56;18.77;;;5.20;;
37341;SDS011;58643;49.052;8.518;2023-02-23T16:39:23;25.38;;;10.73;;
37341;SDS011;58643;49.052;8.518;2023-02-23T16:41:53;12.88;;;5.30;;
37341;SDS011;58643;49.052;8.518;2023-02-23T16:44:22;14.35;;;5.15;;
37341;SDS011;58643;49.052;8.518;2023-02-23T16:49:27;8.07;;;5.47;;
37341;SDS011;58643;49.052;8.518;2023-02-23T16:51:57;11.02;;;4.82;;
37341;SDS011;58643;49.052;8.518;2023-02-23T16:54:23;11.10;;;4.28;;
37341;SDS011;58643;49.052;8.518;2023-02-23T16:56:49;15.38;;;4.47;;
37341;SDS011;58643;49.052;8.518;2023-02-23T16:59:19;8.85;;;4.68;;
37341;SDS011;58643;49.052;8.518;2023-02-23T17:01:46;10.07;;;4.82;;
37341;SDS011;58643;49.052;8.518;2023-02-23T17:04:14;12.77;;;4.95;;
37341;SDS011;58643;49.052;8.518;2023-02-23T17:06:42;7.95;;;4.18;;
37341;SDS011;58643;49.052;8.518;2023-02-23T17:09:09;8.65;;;4.68;;
37341;SDS011;58643;49.052;8.518;2023-02-23T17:11:35;11.20;;;5.68;;
37341;SDS011;58643;49.052;8.518;2023-02-23T17:14:01;11.55;;;5.60;;
37341;SDS011;58643;49.052;8.518;2023-02-23T17:16:26;11.30;;;5.03;;